sensor_id;sensor_type;location;lat;lon;timestamp;P1;durP1;ratioP1;P2;durP2;ratioP2
31537;SDS011;18147;51.952;6.146;2022-07-29T00:00:34;6.60;;;2.33;;
31537;SDS011;18147;51.952;6.146;2022-07-29T00:03:00;3.53;;;1.80;;
31537;SDS011;18147;51.952;6.146;2022-07-29T00:05:27;1.92;;;1.75;;
31537;SDS011;18147;51.952;6.146;2022-07-29T00:07:52;2.63;;;1.90;;
31537;SDS011;18147;51.952;6.146;2022-07-29T00:10:18;7.13;;;1.98;;
31537;SDS011;18147;51.952;6.146;2022-07-29T00:12:43;6.70;;;2.00;;
31537;SDS011;18147;51.952;6.146;2022-07-29T00:15:09;4.05;;;1.88;;
31537;SDS011;18147;51.952;6.146;2022-07-29T00:17:34;4.63;;;1.90;;
31537;SDS011;18147;51.952;6.146;2022-07-29T00:20:00;6.13;;;2.00;;
31537;SDS011;18147;51.952;6.146;2022-07-29T00:22:25;4.55;;;2.00;;
31537;SDS011;18147;51.952;6.146;2022-07-29T00:24:51;4.25;;;2.83;;
31537;SDS011;18147;51.952;6.146;2022-07-29T00:27:17;2.72;;;1.75;;
31537;SDS011;18147;51.952;6.146;2022-07-29T00:29:43;2.85;;;1.60;;
31537;SDS011;18147;51.952;6.146;2022-07-29T00:32:09;7.60;;;1.88;;
31537;SDS011;18147;51.952;6.146;2022-07-29T00:34:34;5.95;;;2.08;;
31537;SDS011;18147;51.952;6.146;2022-07-29T00:37:18;8.00;;;2.38;;
31537;SDS011;18147;51.952;6.146;2022-07-29T00:39:44;3.35;;;2.20;;
31537;SDS011;18147;51.952;6.146;2022-07-29T00:42:09;3.28;;;1.88;;
31537;SDS011;18147;51.952;6.146;2022-07-29T00:44:41;5.30;;;2.00;;
31537;SDS011;18147;51.952;6.146;2022-07-29T00:47:07;3.03;;;2.03;;
31537;SDS011;18147;51.952;6.146;2022-07-29T00:49:34;6.72;;;2.13;;
31537;SDS011;18147;51.952;6.146;2022-07-29T00:52:00;5.57;;;2.08;;
31537;SDS011;18147;51.952;6.146;2022-07-29T00:54:27;4.10;;;2.00;;
31537;SDS011;18147;51.952;6.146;2022-07-29T00:56:54;4.90;;;1.70;;
31537;SDS011;18147;51.952;6.146;2022-07-29T00:59:22;7.72;;;2.42;;
31537;SDS011;18147;51.952;6.146;2022-07-29T01:01:48;7.32;;;1.98;;
31537;SDS011;18147;51.952;6.146;2022-07-29T01:04:13;3.88;;;2.20;;
31537;SDS011;18147;51.952;6.146;2022-07-29T01:06:39;6.30;;;1.85;;
31537;SDS011;18147;51.952;6.146;2022-07-29T01:09:04;4.45;;;2.17;;
31537;SDS011;18147;51.952;6.146;2022-07-29T01:11:31;3.70;;;1.90;;
31537;SDS011;18147;51.952;6.146;2022-07-29T01:14:04;6.93;;;2.58;;
31537;SDS011;18147;51.952;6.146;2022-07-29T01:16:32;2.70;;;1.98;;
31537;SDS011;18147;51.952;6.146;2022-07-29T01:19:02;3.90;;;2.05;;
31537;SDS011;18147;51.952;6.146;2022-07-29T01:30:06;3.72;;;2.10;;
31537;SDS011;18147;51.952;6.146;2022-07-29T01:32:35;10.98;;;2.30;;
31537;SDS011;18147;51.952;6.146;2022-07-29T01:37:29;9.23;;;2.97;;
31537;SDS011;18147;51.952;6.146;2022-07-29T01:40:03;8.45;;;2.80;;
31537;SDS011;18147;51.952;6.146;2022-07-29T01:42:35;7.55;;;2.92;;
31537;SDS011;18147;51.952;6.146;2022-07-29T01:51:02;6.53;;;3.20;;
31537;SDS011;18147;51.952;6.146;2022-07-29T01:53:36;6.07;;;3.30;;
31537;SDS011;18147;51.952;6.146;2022-07-29T01:56:08;4.60;;;2.95;;
31537;SDS011;18147;51.952;6.146;2022-07-29T01:58:35;4.20;;;2.67;;
31537;SDS011;18147;51.952;6.146;2022-07-29T02:01:05;5.60;;;2.80;;
31537;SDS011;18147;51.952;6.146;2022-07-29T02:03:33;4.45;;;2.58;;
31537;SDS011;18147;51.952;6.146;2022-07-29T02:06:01;5.45;;;2.33;;
31537;SDS011;18147;51.952;6.146;2022-07-29T02:08:29;5.97;;;2.45;;
31537;SDS011;18147;51.952;6.146;2022-07-29T02:10:58;8.75;;;2.95;;
31537;SDS011;18147;51.952;6.146;2022-07-29T02:13:25;6.40;;;2.40;;
31537;SDS011;18147;51.952;6.146;2022-07-29T02:15:54;7.40;;;2.47;;
31537;SDS011;18147;51.952;6.146;2022-07-29T02:18:22;5.63;;;2.75;;
31537;SDS011;18147;51.952;6.146;2022-07-29T02:20:50;9.23;;;3.58;;
31537;SDS011;18147;51.952;6.146;2022-07-29T02:23:20;8.63;;;3.88;;
31537;SDS011;18147;51.952;6.146;2022-07-29T02:25:54;7.60;;;3.80;;
31537;SDS011;18147;51.952;6.146;2022-07-29T02:28:21;10.10;;;3.90;;
31537;SDS011;18147;51.952;6.146;2022-07-29T02:30:49;7.85;;;3.42;;
31537;SDS011;18147;51.952;6.146;2022-07-29T02:33:17;5.78;;;3.70;;
31537;SDS011;18147;51.952;6.146;2022-07-29T02:35:44;8.70;;;4.50;;
31537;SDS011;18147;51.952;6.146;2022-07-29T02:38:12;9.88;;;4.10;;
31537;SDS011;18147;51.952;6.146;2022-07-29T02:41:00;7.80;;;4.30;;
31537;SDS011;18147;51.952;6.146;2022-07-29T02:43:29;11.48;;;4.30;;
31537;SDS011;18147;51.952;6.146;2022-07-29T02:45:56;8.77;;;3.92;;
31537;SDS011;18147;51.952;6.146;2022-07-29T02:48:30;10.07;;;4.07;;
31537;SDS011;18147;51.952;6.146;2022-07-29T02:51:01;5.65;;;4.22;;
31537;SDS011;18147;51.952;6.146;2022-07-29T02:53:35;9.27;;;4.90;;
31537;SDS011;18147;51.952;6.146;2022-07-29T02:56:07;11.27;;;4.65;;
31537;SDS011;18147;51.952;6.146;2022-07-29T02:58:39;14.52;;;5.65;;
31537;SDS011;18147;51.952;6.146;2022-07-29T03:01:16;5.57;;;4.93;;
31537;SDS011;18147;51.952;6.146;2022-07-29T03:03:45;6.32;;;4.68;;
31537;SDS011;18147;51.952;6.146;2022-07-29T03:06:12;11.13;;;5.72;;
31537;SDS011;18147;51.952;6.146;2022-07-29T03:08:40;10.32;;;6.07;;
31537;SDS011;18147;51.952;6.146;2022-07-29T03:11:07;9.45;;;6.63;;
31537;SDS011;18147;51.952;6.146;2022-07-29T03:13:34;9.30;;;6.18;;
31537;SDS011;18147;51.952;6.146;2022-07-29T03:16:00;12.10;;;6.65;;
31537;SDS011;18147;51.952;6.146;2022-07-29T03:18:26;12.68;;;6.38;;
31537;SDS011;18147;51.952;6.146;2022-07-29T03:20:52;12.63;;;6.68;;
31537;SDS011;18147;51.952;6.146;2022-07-29T03:23:18;6.57;;;5.72;;
31537;SDS011;18147;51.952;6.146;2022-07-29T03:25:46;9.52;;;6.10;;
31537;SDS011;18147;51.952;6.146;2022-07-29T03:28:12;11.80;;;6.43;;
31537;SDS011;18147;51.952;6.146;2022-07-29T03:30:37;11.40;;;6.82;;
31537;SDS011;18147;51.952;6.146;2022-07-29T03:33:03;10.65;;;5.95;;
31537;SDS011;18147;51.952;6.146;2022-07-29T03:35:28;10.27;;;6.30;;
31537;SDS011;18147;51.952;6.146;2022-07-29T03:37:56;7.38;;;5.10;;
31537;SDS011;18147;51.952;6.146;2022-07-29T03:40:24;7.80;;;6.03;;
31537;SDS011;18147;51.952;6.146;2022-07-29T03:45:20;9.07;;;6.80;;
31537;SDS011;18147;51.952;6.146;2022-07-29T03:47:51;11.48;;;6.72;;
31537;SDS011;18147;51.952;6.146;2022-07-29T03:50:22;10.77;;;5.82;;
31537;SDS011;18147;51.952;6.146;2022-07-29T03:52:48;7.20;;;5.80;;
31537;SDS011;18147;51.952;6.146;2022-07-29T03:55:14;8.82;;;6.38;;
31537;SDS011;18147;51.952;6.146;2022-07-29T03:57:40;12.98;;;6.03;;
31537;SDS011;18147;51.952;6.146;2022-07-29T04:00:06;9.52;;;5.90;;
31537;SDS011;18147;51.952;6.146;2022-07-29T04:02:33;8.18;;;5.68;;
31537;SDS011;18147;51.952;6.146;2022-07-29T04:04:59;10.95;;;6.72;;
31537;SDS011;18147;51.952;6.146;2022-07-29T04:07:25;9.13;;;6.90;;
31537;SDS011;18147;51.952;6.146;2022-07-29T04:09:50;13.88;;;7.20;;
31537;SDS011;18147;51.952;6.146;2022-07-29T04:12:15;9.95;;;6.72;;
31537;SDS011;18147;51.952;6.146;2022-07-29T04:14:41;12.10;;;6.85;;
31537;SDS011;18147;51.952;6.146;2022-07-29T04:17:07;14.23;;;6.65;;
31537;SDS011;18147;51.952;6.146;2022-07-29T04:19:32;11.93;;;6.53;;
31537;SDS011;18147;51.952;6.146;2022-07-29T04:21:58;14.05;;;7.15;;
31537;SDS011;18147;51.952;6.146;2022-07-29T04:24:25;9.63;;;5.97;;
31537;SDS011;18147;51.952;6.146;2022-07-29T04:26:50;14.15;;;7.20;;
31537;SDS011;18147;51.952;6.146;2022-07-29T04:29:16;10.02;;;6.40;;
31537;SDS011;18147;51.952;6.146;2022-07-29T04:31:42;10.55;;;6.32;;
31537;SDS011;18147;51.952;6.146;2022-07-29T04:34:08;10.20;;;6.22;;
31537;SDS011;18147;51.952;6.146;2022-07-29T04:36:34;12.35;;;6.55;;
31537;SDS011;18147;51.952;6.146;2022-07-29T04:39:00;14.20;;;6.47;;
31537;SDS011;18147;51.952;6.146;2022-07-29T04:41:26;8.05;;;6.03;;
31537;SDS011;18147;51.952;6.146;2022-07-29T04:43:55;9.15;;;5.82;;
31537;SDS011;18147;51.952;6.146;2022-07-29T04:46:21;11.68;;;6.18;;
31537;SDS011;18147;51.952;6.146;2022-07-29T04:48:46;12.60;;;5.78;;
31537;SDS011;18147;51.952;6.146;2022-07-29T04:51:13;9.90;;;5.47;;
31537;SDS011;18147;51.952;6.146;2022-07-29T04:53:39;10.95;;;5.93;;
31537;SDS011;18147;51.952;6.146;2022-07-29T04:56:04;14.48;;;5.35;;
31537;SDS011;18147;51.952;6.146;2022-07-29T04:58:29;10.48;;;5.15;;
31537;SDS011;18147;51.952;6.146;2022-07-29T05:00:55;9.30;;;5.53;;
31537;SDS011;18147;51.952;6.146;2022-07-29T05:03:20;10.43;;;5.10;;
31537;SDS011;18147;51.952;6.146;2022-07-29T05:05:46;9.13;;;5.00;;
31537;SDS011;18147;51.952;6.146;2022-07-29T05:08:11;10.40;;;5.22;;
31537;SDS011;18147;51.952;6.146;2022-07-29T05:10:37;10.02;;;5.18;;
31537;SDS011;18147;51.952;6.146;2022-07-29T05:13:06;8.60;;;5.18;;
31537;SDS011;18147;51.952;6.146;2022-07-29T05:15:33;11.38;;;5.18;;
31537;SDS011;18147;51.952;6.146;2022-07-29T05:17:59;7.47;;;4.88;;
31537;SDS011;18147;51.952;6.146;2022-07-29T05:20:25;10.80;;;5.03;;
31537;SDS011;18147;51.952;6.146;2022-07-29T05:22:54;7.68;;;5.38;;
31537;SDS011;18147;51.952;6.146;2022-07-29T05:25:20;15.15;;;8.55;;
31537;SDS011;18147;51.952;6.146;2022-07-29T05:27:45;12.05;;;6.68;;
31537;SDS011;18147;51.952;6.146;2022-07-29T05:30:11;10.43;;;5.38;;
31537;SDS011;18147;51.952;6.146;2022-07-29T05:32:36;8.05;;;5.35;;
31537;SDS011;18147;51.952;6.146;2022-07-29T05:35:02;10.55;;;5.30;;
31537;SDS011;18147;51.952;6.146;2022-07-29T05:37:27;6.55;;;5.68;;
31537;SDS011;18147;51.952;6.146;2022-07-29T05:39:53;9.50;;;5.90;;
31537;SDS011;18147;51.952;6.146;2022-07-29T05:42:18;9.63;;;5.50;;
31537;SDS011;18147;51.952;6.146;2022-07-29T05:44:44;10.93;;;5.68;;
31537;SDS011;18147;51.952;6.146;2022-07-29T05:47:09;5.88;;;4.60;;
31537;SDS011;18147;51.952;6.146;2022-07-29T05:49:34;12.38;;;5.53;;
31537;SDS011;18147;51.952;6.146;2022-07-29T05:52:00;12.45;;;5.65;;
31537;SDS011;18147;51.952;6.146;2022-07-29T05:54:25;7.80;;;5.05;;
31537;SDS011;18147;51.952;6.146;2022-07-29T05:56:51;8.73;;;4.85;;
31537;SDS011;18147;51.952;6.146;2022-07-29T05:59:16;7.50;;;5.00;;
31537;SDS011;18147;51.952;6.146;2022-07-29T06:01:42;8.35;;;5.05;;
31537;SDS011;18147;51.952;6.146;2022-07-29T06:04:07;8.18;;;5.25;;
31537;SDS011;18147;51.952;6.146;2022-07-29T06:06:33;6.70;;;5.25;;
31537;SDS011;18147;51.952;6.146;2022-07-29T06:09:00;8.40;;;5.07;;
31537;SDS011;18147;51.952;6.146;2022-07-29T06:11:26;9.65;;;5.55;;
31537;SDS011;18147;51.952;6.146;2022-07-29T06:13:51;8.45;;;5.82;;
31537;SDS011;18147;51.952;6.146;2022-07-29T06:16:18;8.80;;;5.40;;
31537;SDS011;18147;51.952;6.146;2022-07-29T06:18:43;10.05;;;5.85;;
31537;SDS011;18147;51.952;6.146;2022-07-29T06:21:09;9.77;;;5.85;;
31537;SDS011;18147;51.952;6.146;2022-07-29T06:23:35;8.35;;;5.13;;
31537;SDS011;18147;51.952;6.146;2022-07-29T06:26:04;17.65;;;5.28;;
31537;SDS011;18147;51.952;6.146;2022-07-29T06:28:30;7.47;;;4.78;;
31537;SDS011;18147;51.952;6.146;2022-07-29T06:30:55;6.13;;;4.82;;
31537;SDS011;18147;51.952;6.146;2022-07-29T06:33:21;10.55;;;4.95;;
31537;SDS011;18147;51.952;6.146;2022-07-29T06:35:46;7.78;;;4.47;;
31537;SDS011;18147;51.952;6.146;2022-07-29T06:38:12;6.93;;;4.75;;
31537;SDS011;18147;51.952;6.146;2022-07-29T06:40:45;6.80;;;4.40;;
31537;SDS011;18147;51.952;6.146;2022-07-29T06:43:28;7.28;;;4.43;;
31537;SDS011;18147;51.952;6.146;2022-07-29T06:45:59;13.27;;;6.00;;
31537;SDS011;18147;51.952;6.146;2022-07-29T06:48:26;6.30;;;4.38;;
31537;SDS011;18147;51.952;6.146;2022-07-29T06:50:51;8.15;;;5.57;;
31537;SDS011;18147;51.952;6.146;2022-07-29T06:53:17;6.82;;;4.60;;
31537;SDS011;18147;51.952;6.146;2022-07-29T06:55:42;12.07;;;4.78;;
31537;SDS011;18147;51.952;6.146;2022-07-29T06:58:08;7.88;;;4.45;;
31537;SDS011;18147;51.952;6.146;2022-07-29T07:00:34;6.72;;;4.47;;
31537;SDS011;18147;51.952;6.146;2022-07-29T07:03:00;8.30;;;4.97;;
31537;SDS011;18147;51.952;6.146;2022-07-29T07:05:26;6.85;;;4.20;;
31537;SDS011;18147;51.952;6.146;2022-07-29T07:07:51;6.22;;;4.07;;
31537;SDS011;18147;51.952;6.146;2022-07-29T07:10:17;6.82;;;4.50;;
31537;SDS011;18147;51.952;6.146;2022-07-29T07:12:42;5.07;;;4.20;;
31537;SDS011;18147;51.952;6.146;2022-07-29T07:15:08;9.35;;;3.95;;
31537;SDS011;18147;51.952;6.146;2022-07-29T07:17:34;9.57;;;3.88;;
31537;SDS011;18147;51.952;6.146;2022-07-29T07:19:59;13.15;;;4.57;;
31537;SDS011;18147;51.952;6.146;2022-07-29T07:22:25;9.68;;;4.18;;
31537;SDS011;18147;51.952;6.146;2022-07-29T07:24:50;5.63;;;3.90;;
31537;SDS011;18147;51.952;6.146;2022-07-29T07:27:15;5.43;;;4.00;;
31537;SDS011;18147;51.952;6.146;2022-07-29T07:29:41;6.20;;;4.18;;
31537;SDS011;18147;51.952;6.146;2022-07-29T07:32:07;7.47;;;4.82;;
31537;SDS011;18147;51.952;6.146;2022-07-29T07:34:32;5.70;;;3.90;;
31537;SDS011;18147;51.952;6.146;2022-07-29T07:36:58;9.48;;;4.50;;
31537;SDS011;18147;51.952;6.146;2022-07-29T07:39:24;9.52;;;4.45;;
31537;SDS011;18147;51.952;6.146;2022-07-29T07:41:51;8.02;;;4.43;;
31537;SDS011;18147;51.952;6.146;2022-07-29T07:44:17;12.27;;;4.30;;
31537;SDS011;18147;51.952;6.146;2022-07-29T07:46:42;8.02;;;4.78;;
31537;SDS011;18147;51.952;6.146;2022-07-29T07:49:09;6.43;;;4.35;;
31537;SDS011;18147;51.952;6.146;2022-07-29T07:51:35;6.20;;;3.92;;
31537;SDS011;18147;51.952;6.146;2022-07-29T07:54:00;15.38;;;4.90;;
31537;SDS011;18147;51.952;6.146;2022-07-29T07:56:26;8.48;;;4.40;;
31537;SDS011;18147;51.952;6.146;2022-07-29T07:58:51;12.02;;;5.32;;
31537;SDS011;18147;51.952;6.146;2022-07-29T08:01:17;8.05;;;4.97;;
31537;SDS011;18147;51.952;6.146;2022-07-29T08:03:44;9.88;;;5.22;;
31537;SDS011;18147;51.952;6.146;2022-07-29T08:06:09;8.45;;;4.35;;
31537;SDS011;18147;51.952;6.146;2022-07-29T08:08:35;8.65;;;5.07;;
31537;SDS011;18147;51.952;6.146;2022-07-29T08:11:00;11.30;;;4.63;;
31537;SDS011;18147;51.952;6.146;2022-07-29T08:13:27;6.88;;;4.45;;
31537;SDS011;18147;51.952;6.146;2022-07-29T08:15:53;11.45;;;4.68;;
31537;SDS011;18147;51.952;6.146;2022-07-29T08:18:37;7.65;;;4.28;;
31537;SDS011;18147;51.952;6.146;2022-07-29T08:21:04;7.82;;;4.40;;
31537;SDS011;18147;51.952;6.146;2022-07-29T08:23:29;7.70;;;4.47;;
31537;SDS011;18147;51.952;6.146;2022-07-29T08:26:08;10.43;;;4.97;;
31537;SDS011;18147;51.952;6.146;2022-07-29T08:28:44;7.15;;;4.70;;
31537;SDS011;18147;51.952;6.146;2022-07-29T08:31:12;8.90;;;4.35;;
31537;SDS011;18147;51.952;6.146;2022-07-29T08:33:38;7.88;;;4.32;;
31537;SDS011;18147;51.952;6.146;2022-07-29T08:36:04;10.68;;;4.70;;
31537;SDS011;18147;51.952;6.146;2022-07-29T08:38:31;8.57;;;4.47;;
31537;SDS011;18147;51.952;6.146;2022-07-29T08:40:56;8.40;;;4.60;;
31537;SDS011;18147;51.952;6.146;2022-07-29T08:43:23;5.90;;;4.88;;
31537;SDS011;18147;51.952;6.146;2022-07-29T08:45:49;7.40;;;3.97;;
31537;SDS011;18147;51.952;6.146;2022-07-29T08:48:17;11.02;;;4.68;;
31537;SDS011;18147;51.952;6.146;2022-07-29T08:50:44;5.80;;;4.28;;
31537;SDS011;18147;51.952;6.146;2022-07-29T08:53:10;14.38;;;6.45;;
31537;SDS011;18147;51.952;6.146;2022-07-29T08:55:43;6.28;;;5.00;;
31537;SDS011;18147;51.952;6.146;2022-07-29T08:58:13;9.32;;;5.00;;
31537;SDS011;18147;51.952;6.146;2022-07-29T09:00:43;13.45;;;4.78;;
31537;SDS011;18147;51.952;6.146;2022-07-29T09:03:16;12.18;;;5.07;;
31537;SDS011;18147;51.952;6.146;2022-07-29T09:05:47;7.35;;;4.82;;
31537;SDS011;18147;51.952;6.146;2022-07-29T09:08:13;9.85;;;5.00;;
31537;SDS011;18147;51.952;6.146;2022-07-29T09:10:39;5.32;;;3.70;;
31537;SDS011;18147;51.952;6.146;2022-07-29T09:13:05;9.50;;;4.53;;
31537;SDS011;18147;51.952;6.146;2022-07-29T09:15:30;9.23;;;5.30;;
31537;SDS011;18147;51.952;6.146;2022-07-29T09:17:56;9.05;;;5.05;;
31537;SDS011;18147;51.952;6.146;2022-07-29T09:20:23;11.23;;;5.40;;
31537;SDS011;18147;51.952;6.146;2022-07-29T09:22:49;8.32;;;5.18;;
31537;SDS011;18147;51.952;6.146;2022-07-29T09:25:33;8.10;;;5.13;;
31537;SDS011;18147;51.952;6.146;2022-07-29T09:28:07;17.95;;;5.32;;
31537;SDS011;18147;51.952;6.146;2022-07-29T09:30:34;8.55;;;4.95;;
31537;SDS011;18147;51.952;6.146;2022-07-29T09:33:02;7.82;;;5.13;;
31537;SDS011;18147;51.952;6.146;2022-07-29T09:35:29;13.20;;;5.57;;
31537;SDS011;18147;51.952;6.146;2022-07-29T09:37:55;7.03;;;4.93;;
31537;SDS011;18147;51.952;6.146;2022-07-29T09:40:22;8.70;;;5.05;;
31537;SDS011;18147;51.952;6.146;2022-07-29T09:42:49;8.13;;;5.82;;
31537;SDS011;18147;51.952;6.146;2022-07-29T09:45:26;8.65;;;5.63;;
31537;SDS011;18147;51.952;6.146;2022-07-29T09:47:56;7.25;;;4.82;;
31537;SDS011;18147;51.952;6.146;2022-07-29T09:50:35;12.32;;;4.70;;
31537;SDS011;18147;51.952;6.146;2022-07-29T09:53:02;7.88;;;5.25;;
31537;SDS011;18147;51.952;6.146;2022-07-29T09:55:27;10.27;;;4.75;;
31537;SDS011;18147;51.952;6.146;2022-07-29T09:57:53;9.45;;;5.68;;
31537;SDS011;18147;51.952;6.146;2022-07-29T10:00:19;5.22;;;4.00;;
31537;SDS011;18147;51.952;6.146;2022-07-29T10:02:47;6.15;;;4.93;;
31537;SDS011;18147;51.952;6.146;2022-07-29T10:05:21;7.82;;;4.35;;
31537;SDS011;18147;51.952;6.146;2022-07-29T10:07:56;11.68;;;4.57;;
31537;SDS011;18147;51.952;6.146;2022-07-29T10:10:30;9.68;;;4.80;;
31537;SDS011;18147;51.952;6.146;2022-07-29T10:12:57;5.28;;;4.07;;
31537;SDS011;18147;51.952;6.146;2022-07-29T10:15:25;11.35;;;4.85;;
31537;SDS011;18147;51.952;6.146;2022-07-29T10:17:56;5.47;;;4.25;;
31537;SDS011;18147;51.952;6.146;2022-07-29T10:20:23;6.40;;;4.65;;
31537;SDS011;18147;51.952;6.146;2022-07-29T10:22:50;9.00;;;4.93;;
31537;SDS011;18147;51.952;6.146;2022-07-29T10:25:17;7.25;;;4.30;;
31537;SDS011;18147;51.952;6.146;2022-07-29T10:27:43;8.68;;;4.40;;
31537;SDS011;18147;51.952;6.146;2022-07-29T10:30:11;6.40;;;4.38;;
31537;SDS011;18147;51.952;6.146;2022-07-29T10:38:26;16.40;;;6.05;;
31537;SDS011;18147;51.952;6.146;2022-07-29T10:44:03;9.98;;;4.95;;
31537;SDS011;18147;51.952;6.146;2022-07-29T10:46:35;6.53;;;4.38;;
31537;SDS011;18147;51.952;6.146;2022-07-29T10:49:15;11.18;;;4.85;;
31537;SDS011;18147;51.952;6.146;2022-07-29T10:57:10;11.70;;;4.50;;
31537;SDS011;18147;51.952;6.146;2022-07-29T10:59:44;10.07;;;4.80;;
31537;SDS011;18147;51.952;6.146;2022-07-29T11:04:59;7.63;;;4.75;;
31537;SDS011;18147;51.952;6.146;2022-07-29T11:07:26;11.48;;;4.53;;
31537;SDS011;18147;51.952;6.146;2022-07-29T11:10:19;7.43;;;4.30;;
31537;SDS011;18147;51.952;6.146;2022-07-29T11:15:09;6.25;;;4.70;;
31537;SDS011;18147;51.952;6.146;2022-07-29T11:20:34;6.13;;;4.15;;
31537;SDS011;18147;51.952;6.146;2022-07-29T11:23:19;13.85;;;4.88;;
31537;SDS011;18147;51.952;6.146;2022-07-29T11:31:16;8.70;;;3.83;;
31537;SDS011;18147;51.952;6.146;2022-07-29T11:33:56;10.68;;;4.28;;
31537;SDS011;18147;51.952;6.146;2022-07-29T11:36:21;8.77;;;5.25;;
31537;SDS011;18147;51.952;6.146;2022-07-29T11:38:47;8.13;;;3.72;;
31537;SDS011;18147;51.952;6.146;2022-07-29T11:43:55;9.98;;;4.93;;
31537;SDS011;18147;51.952;6.146;2022-07-29T11:49:26;8.43;;;4.15;;
31537;SDS011;18147;51.952;6.146;2022-07-29T11:51:52;6.45;;;3.55;;
31537;SDS011;18147;51.952;6.146;2022-07-29T11:54:32;5.40;;;2.90;;
31537;SDS011;18147;51.952;6.146;2022-07-29T11:56:59;7.65;;;3.90;;
31537;SDS011;18147;51.952;6.146;2022-07-29T11:59:25;8.63;;;3.50;;
31537;SDS011;18147;51.952;6.146;2022-07-29T12:01:55;8.20;;;3.47;;
31537;SDS011;18147;51.952;6.146;2022-07-29T12:04:21;6.20;;;3.10;;
31537;SDS011;18147;51.952;6.146;2022-07-29T12:06:51;8.85;;;3.47;;
31537;SDS011;18147;51.952;6.146;2022-07-29T12:09:18;8.63;;;3.65;;
31537;SDS011;18147;51.952;6.146;2022-07-29T12:11:45;6.85;;;2.88;;
31537;SDS011;18147;51.952;6.146;2022-07-29T12:14:30;8.27;;;2.90;;
31537;SDS011;18147;51.952;6.146;2022-07-29T12:16:57;7.80;;;2.70;;
31537;SDS011;18147;51.952;6.146;2022-07-29T12:19:25;8.82;;;2.92;;
31537;SDS011;18147;51.952;6.146;2022-07-29T12:21:55;7.35;;;2.42;;
31537;SDS011;18147;51.952;6.146;2022-07-29T12:26:53;7.93;;;2.47;;
31537;SDS011;18147;51.952;6.146;2022-07-29T12:29:22;7.15;;;2.83;;
31537;SDS011;18147;51.952;6.146;2022-07-29T12:31:51;6.22;;;2.60;;
31537;SDS011;18147;51.952;6.146;2022-07-29T12:34:19;4.13;;;2.37;;
31537;SDS011;18147;51.952;6.146;2022-07-29T12:36:47;10.35;;;2.75;;
31537;SDS011;18147;51.952;6.146;2022-07-29T12:39:13;5.63;;;2.28;;
31537;SDS011;18147;51.952;6.146;2022-07-29T12:41:42;5.47;;;2.30;;
31537;SDS011;18147;51.952;6.146;2022-07-29T12:44:08;5.72;;;2.03;;
31537;SDS011;18147;51.952;6.146;2022-07-29T12:46:34;4.32;;;2.50;;
31537;SDS011;18147;51.952;6.146;2022-07-29T12:49:00;5.80;;;2.15;;
31537;SDS011;18147;51.952;6.146;2022-07-29T12:51:29;5.10;;;2.00;;
31537;SDS011;18147;51.952;6.146;2022-07-29T12:54:09;9.10;;;2.30;;
31537;SDS011;18147;51.952;6.146;2022-07-29T12:56:38;5.50;;;2.53;;
31537;SDS011;18147;51.952;6.146;2022-07-29T12:59:37;3.97;;;1.98;;
31537;SDS011;18147;51.952;6.146;2022-07-29T13:01:55;6.13;;;2.75;;
31537;SDS011;18147;51.952;6.146;2022-07-29T13:04:32;10.20;;;2.63;;
31537;SDS011;18147;51.952;6.146;2022-07-29T13:07:00;5.97;;;2.33;;
31537;SDS011;18147;51.952;6.146;2022-07-29T13:09:38;3.17;;;1.95;;
31537;SDS011;18147;51.952;6.146;2022-07-29T13:12:11;5.50;;;2.28;;
31537;SDS011;18147;51.952;6.146;2022-07-29T13:17:09;5.18;;;2.47;;
31537;SDS011;18147;51.952;6.146;2022-07-29T13:19:40;7.47;;;2.35;;
31537;SDS011;18147;51.952;6.146;2022-07-29T13:22:09;4.80;;;1.83;;
31537;SDS011;18147;51.952;6.146;2022-07-29T13:27:35;3.88;;;2.55;;
31537;SDS011;18147;51.952;6.146;2022-07-29T13:30:03;7.35;;;2.40;;
31537;SDS011;18147;51.952;6.146;2022-07-29T13:32:31;4.68;;;2.15;;
31537;SDS011;18147;51.952;6.146;2022-07-29T13:35:00;6.40;;;2.17;;
31537;SDS011;18147;51.952;6.146;2022-07-29T13:37:27;6.68;;;2.70;;
31537;SDS011;18147;51.952;6.146;2022-07-29T13:39:54;6.22;;;2.13;;
31537;SDS011;18147;51.952;6.146;2022-07-29T13:42:21;11.02;;;2.78;;
31537;SDS011;18147;51.952;6.146;2022-07-29T13:44:47;4.53;;;2.25;;
31537;SDS011;18147;51.952;6.146;2022-07-29T13:47:19;3.17;;;2.13;;
31537;SDS011;18147;51.952;6.146;2022-07-29T13:49:45;6.43;;;2.55;;
31537;SDS011;18147;51.952;6.146;2022-07-29T13:52:10;15.20;;;2.50;;
31537;SDS011;18147;51.952;6.146;2022-07-29T13:54:36;5.07;;;2.13;;
31537;SDS011;18147;51.952;6.146;2022-07-29T13:57:05;3.17;;;2.08;;
31537;SDS011;18147;51.952;6.146;2022-07-29T13:59:31;7.15;;;2.03;;
31537;SDS011;18147;51.952;6.146;2022-07-29T14:01:57;5.65;;;2.33;;
31537;SDS011;18147;51.952;6.146;2022-07-29T14:04:22;6.10;;;2.70;;
31537;SDS011;18147;51.952;6.146;2022-07-29T14:06:48;9.20;;;3.25;;
31537;SDS011;18147;51.952;6.146;2022-07-29T14:09:14;4.45;;;2.08;;
31537;SDS011;18147;51.952;6.146;2022-07-29T14:11:39;6.30;;;2.13;;
31537;SDS011;18147;51.952;6.146;2022-07-29T14:14:05;5.70;;;2.17;;
31537;SDS011;18147;51.952;6.146;2022-07-29T14:16:31;10.50;;;3.40;;
31537;SDS011;18147;51.952;6.146;2022-07-29T14:18:56;5.97;;;2.40;;
31537;SDS011;18147;51.952;6.146;2022-07-29T14:21:22;5.07;;;2.53;;
31537;SDS011;18147;51.952;6.146;2022-07-29T14:23:47;5.38;;;1.80;;
31537;SDS011;18147;51.952;6.146;2022-07-29T14:26:13;6.32;;;2.10;;
31537;SDS011;18147;51.952;6.146;2022-07-29T14:28:38;4.30;;;2.15;;
31537;SDS011;18147;51.952;6.146;2022-07-29T14:31:07;2.47;;;1.95;;
31537;SDS011;18147;51.952;6.146;2022-07-29T14:33:35;8.32;;;1.65;;
31537;SDS011;18147;51.952;6.146;2022-07-29T14:36:01;5.93;;;1.95;;
31537;SDS011;18147;51.952;6.146;2022-07-29T14:38:26;5.32;;;2.20;;
31537;SDS011;18147;51.952;6.146;2022-07-29T14:40:52;4.93;;;2.10;;
31537;SDS011;18147;51.952;6.146;2022-07-29T14:43:17;3.67;;;2.28;;
31537;SDS011;18147;51.952;6.146;2022-07-29T14:45:46;5.30;;;1.98;;
31537;SDS011;18147;51.952;6.146;2022-07-29T14:48:12;6.35;;;2.22;;
31537;SDS011;18147;51.952;6.146;2022-07-29T14:50:37;2.75;;;1.80;;
31537;SDS011;18147;51.952;6.146;2022-07-29T14:53:06;5.78;;;1.77;;
31537;SDS011;18147;51.952;6.146;2022-07-29T14:55:31;9.27;;;3.08;;
31537;SDS011;18147;51.952;6.146;2022-07-29T14:57:57;4.43;;;2.22;;
31537;SDS011;18147;51.952;6.146;2022-07-29T15:00:24;3.92;;;2.10;;
31537;SDS011;18147;51.952;6.146;2022-07-29T15:02:50;9.93;;;2.60;;
31537;SDS011;18147;51.952;6.146;2022-07-29T15:05:15;4.97;;;1.92;;
31537;SDS011;18147;51.952;6.146;2022-07-29T15:07:46;3.95;;;2.20;;
31537;SDS011;18147;51.952;6.146;2022-07-29T15:10:14;7.78;;;2.10;;
31537;SDS011;18147;51.952;6.146;2022-07-29T15:12:39;2.58;;;2.00;;
31537;SDS011;18147;51.952;6.146;2022-07-29T15:15:05;7.15;;;2.20;;
31537;SDS011;18147;51.952;6.146;2022-07-29T15:17:35;3.80;;;2.15;;
31537;SDS011;18147;51.952;6.146;2022-07-29T15:20:01;9.52;;;2.05;;
31537;SDS011;18147;51.952;6.146;2022-07-29T15:22:29;4.50;;;2.03;;
31537;SDS011;18147;51.952;6.146;2022-07-29T15:24:54;5.75;;;1.95;;
31537;SDS011;18147;51.952;6.146;2022-07-29T15:27:20;5.75;;;2.53;;
31537;SDS011;18147;51.952;6.146;2022-07-29T15:29:45;5.50;;;2.05;;
31537;SDS011;18147;51.952;6.146;2022-07-29T15:32:11;9.15;;;2.47;;
31537;SDS011;18147;51.952;6.146;2022-07-29T15:34:37;3.67;;;2.13;;
31537;SDS011;18147;51.952;6.146;2022-07-29T15:37:05;8.45;;;2.38;;
31537;SDS011;18147;51.952;6.146;2022-07-29T15:39:33;5.25;;;2.20;;
31537;SDS011;18147;51.952;6.146;2022-07-29T15:41:58;4.95;;;1.90;;
31537;SDS011;18147;51.952;6.146;2022-07-29T15:44:25;7.38;;;2.30;;
31537;SDS011;18147;51.952;6.146;2022-07-29T15:46:50;4.60;;;1.77;;
31537;SDS011;18147;51.952;6.146;2022-07-29T15:49:35;4.30;;;2.30;;